Time;durP1;ratioP1;P1;durP2;ratioP2;P2;SDS_P1;SDS_P2;PMS_P1;PMS_P2;Temp;Humidity;BMP_temperature;BMP_pressure;BME280_temperature;BME280_humidity;BME280_pressure;Samples;Min_cycle;Max_cycle;Signal;HPM_P1;HPM_P2
2021/12/22 00:00:21;;;;;;;121.72;54.15;;;;;;;;;;5054865;28;20020;-76
2021/12/22 00:02:48;;;;;;;109.15;49.60;;;;;;;;;;5071730;28;20116;-77
2021/12/22 00:05:16;;;;;;;104.88;50.45;;;;;;;;;;5070829;28;20070;-77
2021/12/22 00:07:42;;;;;;;92.20;43.95;;;;;;;;;;5071773;28;20024;-76
2021/12/22 00:10:08;;;;;;;90.35;41.88;;;;;;;;;;5071197;28;20025;-76
2021/12/22 00:12:34;;;;;;;82.15;40.63;;;;;;;;;;5070955;28;20102;-76
2021/12/22 00:15:00;;;;;;;88.65;43.78;;;;;;;;;;5071388;28;20032;-76
2021/12/22 00:17:26;;;;;;;96.38;45.03;;;;;;;;;;5071290;28;20780;-76
2021/12/22 00:19:52;;;;;;;113.68;56.28;;;;;;;;;;5071412;28;20039;-76
2021/12/22 00:22:18;;;;;;;109.72;54.20;;;;;;;;;;5070953;28;20048;-76
2021/12/22 00:24:44;;;;;;;126.45;57.42;;;;;;;;;;5071178;28;20021;-76
2021/12/22 00:27:10;;;;;;;129.40;58.17;;;;;;;;;;5070330;28;20147;-76
2021/12/22 00:29:36;;;;;;;102.70;48.47;;;;;;;;;;5070955;28;20103;-76
2021/12/22 00:32:11;;;;;;;102.30;49.05;;;;;;;;;;5070779;28;20150;-76
2021/12/22 00:34:49;;;;;;;118.07;51.83;;;;;;;;;;5070542;28;20032;-76
2021/12/22 00:37:17;;;;;;;122.68;55.28;;;;;;;;;;5061654;28;20099;-75
2021/12/22 00:39:44;;;;;;;126.53;56.30;;;;;;;;;;5050985;28;20033;-76
2021/12/22 00:42:10;;;;;;;126.47;56.10;;;;;;;;;;5064845;28;20060;-76
2021/12/22 00:44:36;;;;;;;124.82;54.92;;;;;;;;;;5071918;28;20028;-76
2021/12/22 00:47:03;;;;;;;113.47;50.88;;;;;;;;;;5072129;28;20518;-76
2021/12/22 00:49:29;;;;;;;112.88;52.67;;;;;;;;;;5071545;28;20024;-76
2021/12/22 00:51:55;;;;;;;113.13;52.22;;;;;;;;;;5069849;28;20053;-76
2021/12/22 00:54:21;;;;;;;120.82;51.60;;;;;;;;;;5070538;28;20036;-76
2021/12/22 00:56:47;;;;;;;120.43;51.83;;;;;;;;;;5070787;28;20055;-76
2021/12/22 00:59:13;;;;;;;112.45;48.95;;;;;;;;;;5069835;28;20040;-76
2021/12/22 01:01:39;;;;;;;103.05;49.63;;;;;;;;;;5070067;28;20594;-76
2021/12/22 01:04:05;;;;;;;129.45;54.28;;;;;;;;;;5065708;28;20464;-76
2021/12/22 01:06:31;;;;;;;127.53;54.53;;;;;;;;;;5059759;28;20043;-76
2021/12/22 01:08:57;;;;;;;135.50;57.15;;;;;;;;;;5069519;28;20066;-75
2021/12/22 01:11:23;;;;;;;110.25;48.67;;;;;;;;;;5069340;28;20139;-76
2021/12/22 01:13:49;;;;;;;99.90;44.38;;;;;;;;;;5069950;28;20032;-75
2021/12/22 01:16:15;;;;;;;103.47;48.28;;;;;;;;;;5066981;28;20037;-76
2021/12/22 01:18:42;;;;;;;108.13;46.00;;;;;;;;;;5069839;28;20021;-76
2021/12/22 01:23:50;;;;;;;117.55;52.92;;;;;;;;;;5070061;28;20063;-76
2021/12/22 01:26:16;;;;;;;103.10;45.45;;;;;;;;;;5069766;28;20037;-76
2021/12/22 01:28:43;;;;;;;95.57;45.25;;;;;;;;;;5070046;28;20062;-76
2021/12/22 01:31:15;;;;;;;93.80;43.75;;;;;;;;;;5069681;28;20040;-76
2021/12/22 01:33:41;;;;;;;92.32;42.40;;;;;;;;;;5069488;28;20046;-76
2021/12/22 01:36:07;;;;;;;98.47;43.50;;;;;;;;;;5069168;28;20044;-78
2021/12/22 01:38:33;;;;;;;91.13;41.88;;;;;;;;;;5068731;28;20036;-76
2021/12/22 01:40:59;;;;;;;94.35;46.33;;;;;;;;;;5069395;28;20150;-76
2021/12/22 01:43:25;;;;;;;89.25;41.25;;;;;;;;;;5068955;28;20032;-76
2021/12/22 01:49:26;;;;;;;97.45;47.08;;;;;;;;;;5027610;28;20383;-76
2021/12/22 01:51:41;;;;;;;91.82;42.08;;;;;;;;;;5063426;28;20040;-76
2021/12/22 01:54:27;;;;;;;91.32;42.00;;;;;;;;;;5065571;28;20110;-76
2021/12/22 01:56:54;;;;;;;99.82;47.05;;;;;;;;;;5069180;28;20041;-76
2021/12/22 01:59:20;;;;;;;101.75;49.85;;;;;;;;;;5050897;28;20368;-76
2021/12/22 02:01:47;;;;;;;104.95;48.33;;;;;;;;;;5049316;28;20056;-76
2021/12/22 02:04:13;;;;;;;100.95;46.15;;;;;;;;;;5060382;28;20533;-76
2021/12/22 02:06:43;;;;;;;115.60;54.20;;;;;;;;;;5061330;28;20059;-76
2021/12/22 02:09:12;;;;;;;104.82;51.42;;;;;;;;;;5057971;28;20072;-76
2021/12/22 02:11:38;;;;;;;92.43;48.05;;;;;;;;;;5058187;28;20053;-76
2021/12/22 02:14:06;;;;;;;94.63;44.72;;;;;;;;;;5050939;28;20112;-76
2021/12/22 02:16:36;;;;;;;93.13;46.88;;;;;;;;;;5049401;28;20091;-76
2021/12/22 02:19:04;;;;;;;89.43;44.88;;;;;;;;;;5050866;28;20062;-76
2021/12/22 02:21:34;;;;;;;85.15;40.55;;;;;;;;;;5069218;28;20084;-76
2021/12/22 02:24:00;;;;;;;84.63;39.78;;;;;;;;;;5071493;28;20056;-76
2021/12/22 02:26:45;;;;;;;80.93;39.05;;;;;;;;;;5073433;28;20041;-76
2021/12/22 02:29:23;;;;;;;70.95;34.00;;;;;;;;;;5072784;28;20129;-75
2021/12/22 02:32:06;;;;;;;75.07;36.50;;;;;;;;;;5072526;28;20082;-76
2021/12/22 02:34:39;;;;;;;;;;;;;;;;;;5073507;28;20097;-75
2021/12/22 02:37:10;;;;;;;74.10;33.20;;;;;;;;;;5073025;28;19916;-76
2021/12/22 02:39:37;;;;;;;71.15;36.08;;;;;;;;;;5072983;28;20051;-76
2021/12/22 02:42:03;;;;;;;77.25;36.75;;;;;;;;;;5069062;28;20033;-76
2021/12/22 02:44:29;;;;;;;69.82;33.67;;;;;;;;;;5052483;28;20035;-75
2021/12/22 02:46:55;;;;;;;66.18;34.17;;;;;;;;;;5051949;28;20033;-76
2021/12/22 02:49:21;;;;;;;68.22;31.42;;;;;;;;;;5053327;28;20108;-76
2021/12/22 02:51:48;;;;;;;74.50;35.30;;;;;;;;;;5052440;28;20542;-76
2021/12/22 02:54:22;;;;;;;68.43;31.73;;;;;;;;;;5071426;28;20112;-76
2021/12/22 02:59:39;;;;;;;64.00;31.33;;;;;;;;;;5072136;28;20429;-76
2021/12/22 03:02:24;;;;;;;68.97;33.53;;;;;;;;;;5072298;28;20036;-77
2021/12/22 03:04:56;;;;;;;66.38;31.98;;;;;;;;;;5056695;28;20040;-76
2021/12/22 03:07:25;;;;;;;67.75;29.88;;;;;;;;;;5072192;28;20031;-76
2021/12/22 03:10:00;;;;;;;68.43;33.35;;;;;;;;;;5071886;28;20056;-76
2021/12/22 03:12:28;;;;;;;65.53;32.83;;;;;;;;;;5067688;28;20758;-76
2021/12/22 03:14:54;;;;;;;67.20;29.85;;;;;;;;;;5070297;28;20055;-76
2021/12/22 03:17:20;;;;;;;58.70;30.40;;;;;;;;;;5071991;28;20133;-76
2021/12/22 03:19:46;;;;;;;59.53;29.23;;;;;;;;;;5067369;28;20111;-76
2021/12/22 03:22:17;;;;;;;59.08;27.17;;;;;;;;;;5072287;28;20037;-76
2021/12/22 03:24:45;;;;;;;57.17;27.80;;;;;;;;;;5071531;28;20162;-76
2021/12/22 03:27:11;;;;;;;61.20;28.63;;;;;;;;;;5072433;28;20040;-76
2021/12/22 03:29:38;;;;;;;57.13;28.50;;;;;;;;;;5071589;28;20036;-76
2021/12/22 03:32:04;;;;;;;57.95;28.38;;;;;;;;;;5071925;28;20501;-76
2021/12/22 03:34:31;;;;;;;62.75;28.58;;;;;;;;;;5071512;28;20035;-76
2021/12/22 03:36:57;;;;;;;58.88;28.27;;;;;;;;;;5068838;28;20071;-76
2021/12/22 03:39:23;;;;;;;63.13;30.95;;;;;;;;;;5051890;28;20029;-76
2021/12/22 03:41:49;;;;;;;60.17;30.10;;;;;;;;;;5051591;28;20060;-76
2021/12/22 03:44:15;;;;;;;60.80;30.50;;;;;;;;;;5059103;28;20710;-76
2021/12/22 03:46:41;;;;;;;60.08;27.02;;;;;;;;;;5071732;28;20044;-76
2021/12/22 03:49:08;;;;;;;61.05;29.75;;;;;;;;;;5071091;28;20031;-76
2021/12/22 03:51:36;;;;;;;72.72;34.00;;;;;;;;;;5071400;28;20044;-76
2021/12/22 03:54:02;;;;;;;64.47;29.63;;;;;;;;;;5071023;28;20031;-76
2021/12/22 03:56:28;;;;;;;60.88;29.83;;;;;;;;;;5071778;28;20040;-76
2021/12/22 03:58:54;;;;;;;64.75;31.48;;;;;;;;;;5056235;28;20033;-76
2021/12/22 04:01:20;;;;;;;60.80;33.50;;;;;;;;;;5051230;28;20060;-76
2021/12/22 04:03:50;;;;;;;57.70;29.13;;;;;;;;;;5050258;28;20416;-76
2021/12/22 04:06:16;;;;;;;57.85;29.55;;;;;;;;;;5051351;28;20060;-77
2021/12/22 04:08:42;;;;;;;67.32;30.45;;;;;;;;;;5050871;28;20103;-76
2021/12/22 04:11:08;;;;;;;57.35;28.35;;;;;;;;;;5051015;28;20099;-76
2021/12/22 04:13:34;;;;;;;55.72;29.38;;;;;;;;;;5051295;28;20033;-76
2021/12/22 04:16:00;;;;;;;51.63;26.15;;;;;;;;;;5052450;28;20037;-76
2021/12/22 04:18:26;;;;;;;60.35;29.13;;;;;;;;;;5061330;28;20032;-76
2021/12/22 04:20:52;;;;;;;58.90;29.17;;;;;;;;;;5070362;28;20090;-76
2021/12/22 04:23:18;;;;;;;54.55;26.90;;;;;;;;;;5070975;28;20025;-76
2021/12/22 04:25:46;;;;;;;51.83;25.85;;;;;;;;;;5070742;28;20126;-76
2021/12/22 04:28:12;;;;;;;50.28;24.65;;;;;;;;;;5071120;28;20021;-76
2021/12/22 04:30:41;;;;;;;57.53;27.95;;;;;;;;;;5061708;28;20025;-77
2021/12/22 04:33:07;;;;;;;61.08;26.92;;;;;;;;;;5050457;28;20036;-76
2021/12/22 04:35:33;;;;;;;62.63;31.27;;;;;;;;;;5056943;28;20032;-76
2021/12/22 04:37:59;;;;;;;59.42;29.40;;;;;;;;;;5070925;28;20386;-76
2021/12/22 04:40:25;;;;;;;63.78;30.67;;;;;;;;;;5055583;28;20545;-76
2021/12/22 04:42:51;;;;;;;64.07;29.83;;;;;;;;;;5070601;28;20111;-77
2021/12/22 04:45:18;;;;;;;66.75;29.80;;;;;;;;;;5068371;28;20375;-76
2021/12/22 04:47:44;;;;;;;61.47;30.55;;;;;;;;;;5057166;28;20057;-76
2021/12/22 04:50:14;;;;;;;64.78;32.72;;;;;;;;;;5067023;28;20033;-76
2021/12/22 04:53:23;;;;;;;62.88;30.20;;;;;;;;;;5070634;28;20448;-76
2021/12/22 04:55:36;;;;;;;58.95;28.77;;;;;;;;;;5049738;28;20254;-77
2021/12/22 04:58:03;;;;;;;61.60;30.77;;;;;;;;;;5050626;28;20383;-76
2021/12/22 05:00:30;;;;;;;66.82;32.03;;;;;;;;;;5066768;28;20036;-76
2021/12/22 05:02:57;;;;;;;64.53;29.45;;;;;;;;;;5064798;28;20115;-76
2021/12/22 05:05:24;;;;;;;63.92;30.02;;;;;;;;;;5050056;28;20590;-76
2021/12/22 05:07:50;;;;;;;67.80;32.45;;;;;;;;;;5062354;28;20062;-76
2021/12/22 05:10:17;;;;;;;74.85;35.42;;;;;;;;;;5070239;28;20032;-76
2021/12/22 05:12:44;;;;;;;73.97;34.25;;;;;;;;;;5059227;28;20057;-75
2021/12/22 05:15:10;;;;;;;72.55;33.40;;;;;;;;;;5050161;28;20033;-76
2021/12/22 05:20:09;;;;;;;64.32;33.03;;;;;;;;;;5050023;28;20167;-77
2021/12/22 05:22:35;;;;;;;61.95;31.65;;;;;;;;;;5055661;28;20029;-76
2021/12/22 05:25:02;;;;;;;67.93;33.78;;;;;;;;;;5070015;28;20036;-76
2021/12/22 05:27:29;;;;;;;62.28;33.53;;;;;;;;;;5068995;28;20024;-76
2021/12/22 05:29:55;;;;;;;57.05;29.63;;;;;;;;;;5069906;28;20028;-76
2021/12/22 05:32:25;;;;;;;64.57;34.25;;;;;;;;;;5064972;28;20032;-76
2021/12/22 05:34:52;;;;;;;66.22;28.30;;;;;;;;;;5068427;28;20074;-76
2021/12/22 05:37:18;;;;;;;59.92;27.65;;;;;;;;;;5070077;28;20036;-76
2021/12/22 05:39:44;;;;;;;64.90;33.13;;;;;;;;;;5050894;28;20041;-76
2021/12/22 05:42:10;;;;;;;60.42;30.20;;;;;;;;;;5049468;28;20479;-76
2021/12/22 05:44:36;;;;;;;62.50;31.70;;;;;;;;;;5065712;28;20375;-76
2021/12/22 05:47:02;;;;;;;56.97;27.58;;;;;;;;;;5069846;28;20033;-76
2021/12/22 05:49:28;;;;;;;66.55;31.08;;;;;;;;;;5067568;28;20041;-76
2021/12/22 05:51:54;;;;;;;65.32;30.23;;;;;;;;;;5069637;28;20028;-76
2021/12/22 05:54:20;;;;;;;56.47;27.15;;;;;;;;;;5069018;28;20043;-76
2021/12/22 05:56:46;;;;;;;58.53;27.02;;;;;;;;;;5069675;28;20467;-76
2021/12/22 05:59:12;;;;;;;61.97;29.42;;;;;;;;;;5062638;28;20107;-76
2021/12/22 06:01:38;;;;;;;60.25;29.20;;;;;;;;;;5060189;28;20119;-76
2021/12/22 06:04:06;;;;;;;58.00;27.02;;;;;;;;;;5066218;28;20020;-76
2021/12/22 06:06:32;;;;;;;56.05;26.73;;;;;;;;;;5068070;28;20033;-76
2021/12/22 06:08:58;;;;;;;52.65;24.35;;;;;;;;;;5069560;28;20024;-76
2021/12/22 06:11:24;;;;;;;53.60;25.45;;;;;;;;;;5067462;28;20052;-76
2021/12/22 06:13:50;;;;;;;54.38;27.20;;;;;;;;;;5067124;28;20032;-76
2021/12/22 06:16:16;;;;;;;51.38;23.98;;;;;;;;;;5055146;28;20048;-76
2021/12/22 06:18:43;;;;;;;53.80;25.75;;;;;;;;;;5058770;28;20025;-76
2021/12/22 06:21:10;;;;;;;53.53;24.55;;;;;;;;;;5069243;28;20041;-76
2021/12/22 06:23:36;;;;;;;56.33;25.95;;;;;;;;;;5068323;28;20031;-76
2021/12/22 06:26:02;;;;;;;48.95;24.30;;;;;;;;;;5069013;28;20040;-77
2021/12/22 06:28:28;;;;;;;58.10;24.27;;;;;;;;;;5068872;28;20021;-77
2021/12/22 06:30:54;;;;;;;60.17;25.92;;;;;;;;;;5064354;28;20042;-77
2021/12/22 06:33:20;;;;;;;60.63;27.25;;;;;;;;;;5064463;28;20028;-77
2021/12/22 06:35:47;;;;;;;57.00;26.98;;;;;;;;;;5050565;28;20446;-76
2021/12/22 06:38:14;;;;;;;62.42;27.88;;;;;;;;;;5063805;28;20108;-76
2021/12/22 06:40:40;;;;;;;64.47;27.92;;;;;;;;;;5066382;28;20048;-77
2021/12/22 06:43:06;;;;;;;56.92;25.20;;;;;;;;;;5058624;28;20029;-77
2021/12/22 06:45:32;;;;;;;57.08;26.35;;;;;;;;;;5068991;28;20028;-77
2021/12/22 06:47:58;;;;;;;50.22;25.60;;;;;;;;;;5066517;28;20040;-77
2021/12/22 06:50:24;;;;;;;55.90;27.83;;;;;;;;;;5051607;28;20066;-77
2021/12/22 06:52:50;;;;;;;60.38;28.33;;;;;;;;;;5076828;28;20044;-77
2021/12/22 06:55:17;;;;;;;61.17;28.00;;;;;;;;;;5082602;28;20032;-77
2021/12/22 06:57:43;;;;;;;58.53;27.40;;;;;;;;;;5085168;28;20028;-77
2021/12/22 07:00:10;;;;;;;59.95;26.73;;;;;;;;;;5060370;28;20050;-78
2021/12/22 07:02:38;;;;;;;65.40;28.75;;;;;;;;;;5089434;28;20032;-77
2021/12/22 07:05:05;;;;;;;66.38;28.33;;;;;;;;;;5058769;28;20032;-77
2021/12/22 07:07:31;;;;;;;62.58;28.58;;;;;;;;;;5069029;28;20039;-77
2021/12/22 07:09:57;;;;;;;63.72;31.67;;;;;;;;;;5068156;28;20040;-78
2021/12/22 07:12:23;;;;;;;89.70;39.58;;;;;;;;;;5073439;28;20421;-79
2021/12/22 07:14:49;;;;;;;70.70;31.25;;;;;;;;;;5066163;28;20375;-79
2021/12/22 07:17:15;;;;;;;90.82;39.67;;;;;;;;;;5069389;28;20100;-78
2021/12/22 07:19:41;;;;;;;106.55;46.60;;;;;;;;;;5068058;28;20123;-78
2021/12/22 07:22:07;;;;;;;96.82;45.22;;;;;;;;;;5069243;28;20495;-77
2021/12/22 07:24:33;;;;;;;96.32;42.92;;;;;;;;;;5058848;28;20033;-78
2021/12/22 07:27:00;;;;;;;87.00;38.78;;;;;;;;;;5069655;28;20029;-77
2021/12/22 07:29:26;;;;;;;85.25;37.80;;;;;;;;;;5069742;28;20032;-77
2021/12/22 07:31:52;;;;;;;69.32;31.70;;;;;;;;;;5069086;28;20078;-76
2021/12/22 07:34:28;;;;;;;69.78;30.88;;;;;;;;;;5070839;28;20035;-78
2021/12/22 07:37:04;;;;;;;66.85;29.65;;;;;;;;;;5070930;28;20566;-78
2021/12/22 07:39:30;;;;;;;67.45;28.90;;;;;;;;;;5068914;28;20421;-78
2021/12/22 07:41:56;;;;;;;66.85;30.77;;;;;;;;;;5069276;28;20054;-78
2021/12/22 07:44:22;;;;;;;65.72;29.58;;;;;;;;;;5070114;28;20158;-78
2021/12/22 07:46:48;;;;;;;66.82;30.25;;;;;;;;;;5070257;28;20028;-78
2021/12/22 07:49:14;;;;;;;66.70;29.42;;;;;;;;;;5069836;28;20027;-78
2021/12/22 07:51:40;;;;;;;71.07;30.75;;;;;;;;;;5071041;28;20036;-79
2021/12/22 07:54:06;;;;;;;65.95;30.15;;;;;;;;;;5060050;28;20035;-77
2021/12/22 07:56:32;;;;;;;64.85;29.60;;;;;;;;;;5075776;28;20032;-78
2021/12/22 07:58:58;;;;;;;62.38;29.52;;;;;;;;;;5077405;28;20115;-78
2021/12/22 08:01:24;;;;;;;67.35;28.80;;;;;;;;;;5063348;28;20115;-78
2021/12/22 08:03:50;;;;;;;66.35;29.85;;;;;;;;;;5070711;28;20612;-78
2021/12/22 08:06:16;;;;;;;56.63;26.02;;;;;;;;;;5070964;28;20036;-78
2021/12/22 08:08:43;;;;;;;55.05;26.17;;;;;;;;;;5071547;28;20437;-78
2021/12/22 08:11:09;;;;;;;57.60;27.83;;;;;;;;;;5069288;28;20429;-78
2021/12/22 08:13:35;;;;;;;64.35;30.05;;;;;;;;;;5071482;28;20024;-78
2021/12/22 08:16:01;;;;;;;66.32;29.98;;;;;;;;;;5082103;28;20032;-78
2021/12/22 08:18:27;;;;;;;66.40;28.88;;;;;;;;;;5075002;28;20032;-78
2021/12/22 08:20:53;;;;;;;62.90;28.88;;;;;;;;;;5059681;28;20057;-79
2021/12/22 08:23:19;;;;;;;63.80;28.63;;;;;;;;;;5074449;28;20031;-79
2021/12/22 08:25:49;;;;;;;66.70;29.95;;;;;;;;;;5072433;28;20146;-79
2021/12/22 08:28:15;;;;;;;64.18;29.48;;;;;;;;;;5084296;28;20107;-78
2021/12/22 08:30:42;;;;;;;65.18;28.35;;;;;;;;;;5075866;28;20074;-78
2021/12/22 08:33:20;;;;;;;71.45;32.00;;;;;;;;;;5082509;28;20060;-78
2021/12/22 08:38:50;;;;;;;56.67;25.08;;;;;;;;;;5066133;28;20556;-78
2021/12/22 08:41:16;;;;;;;65.30;27.77;;;;;;;;;;5071128;28;20115;-78
2021/12/22 08:43:42;;;;;;;55.05;25.73;;;;;;;;;;5090046;28;20758;-79
2021/12/22 08:46:08;;;;;;;59.60;25.08;;;;;;;;;;5074315;28;20463;-78
2021/12/22 08:48:34;;;;;;;56.83;27.15;;;;;;;;;;5078073;28;20020;-78
2021/12/22 08:51:00;;;;;;;58.15;25.33;;;;;;;;;;5068087;28;20025;-79
2021/12/22 08:53:26;;;;;;;54.33;24.25;;;;;;;;;;5077144;28;20031;-78
2021/12/22 08:55:52;;;;;;;55.10;24.05;;;;;;;;;;5066563;28;20029;-79
2021/12/22 08:58:18;;;;;;;59.72;26.95;;;;;;;;;;5090723;28;20386;-78
2021/12/22 09:00:44;;;;;;;51.40;24.10;;;;;;;;;;5066688;28;20111;-78
2021/12/22 09:03:10;;;;;;;53.80;26.33;;;;;;;;;;5068866;28;20037;-79
2021/12/22 09:05:36;;;;;;;80.68;42.25;;;;;;;;;;5077981;28;20027;-78
2021/12/22 09:08:03;;;;;;;62.90;26.27;;;;;;;;;;5085512;28;20487;-79
2021/12/22 09:10:29;;;;;;;57.35;25.10;;;;;;;;;;5063471;28;20052;-79
2021/12/22 09:12:55;;;;;;;63.55;28.45;;;;;;;;;;5054736;28;20126;-78
2021/12/22 09:15:21;;;;;;;65.03;28.13;;;;;;;;;;5054379;28;20029;-79
2021/12/22 09:17:48;;;;;;;60.17;29.05;;;;;;;;;;5073925;28;20120;-78
2021/12/22 09:20:14;;;;;;;57.90;27.85;;;;;;;;;;5066715;28;20039;-79
2021/12/22 09:22:40;;;;;;;61.13;28.88;;;;;;;;;;5074030;28;20040;-78
2021/12/22 09:25:06;;;;;;;54.15;27.30;;;;;;;;;;5068701;28;20024;-79
2021/12/22 09:27:32;;;;;;;47.35;23.90;;;;;;;;;;5077115;28;20039;-78
2021/12/22 09:29:58;;;;;;;55.95;26.58;;;;;;;;;;5071089;28;20056;-78
2021/12/22 09:32:24;;;;;;;54.55;26.98;;;;;;;;;;5065962;28;20041;-78
2021/12/22 09:34:50;;;;;;;51.92;25.38;;;;;;;;;;5069557;28;20035;-78
2021/12/22 09:37:17;;;;;;;56.05;24.52;;;;;;;;;;5071105;28;20060;-78
2021/12/22 09:39:43;;;;;;;50.15;23.25;;;;;;;;;;5068127;28;20039;-78
2021/12/22 09:42:10;;;;;;;46.70;22.60;;;;;;;;;;5062011;28;20116;-78
2021/12/22 09:44:43;;;;;;;48.42;22.83;;;;;;;;;;5051899;28;20067;-79
2021/12/22 09:47:10;;;;;;;52.88;23.40;;;;;;;;;;5060927;28;20049;-78
2021/12/22 09:52:19;;;;;;;45.17;21.95;;;;;;;;;;5080328;28;20047;-77
2021/12/22 09:54:47;;;;;;;55.15;22.70;;;;;;;;;;5049076;28;20033;-78
2021/12/22 09:57:15;;;;;;;42.55;18.35;;;;;;;;;;5057678;28;20053;-78
2021/12/22 09:59:41;;;;;;;53.53;27.95;;;;;;;;;;5059549;28;20091;-78
2021/12/22 10:02:07;;;;;;;39.70;19.55;;;;;;;;;;5061207;28;20715;-78
2021/12/22 10:04:33;;;;;;;34.83;17.73;;;;;;;;;;5061493;28;20032;-78
2021/12/22 10:06:59;;;;;;;36.17;18.13;;;;;;;;;;5067596;28;20043;-78
2021/12/22 10:09:25;;;;;;;31.85;18.00;;;;;;;;;;5068663;28;20024;-78
2021/12/22 10:11:52;;;;;;;33.63;16.60;;;;;;;;;;5056320;28;20068;-78
2021/12/22 10:14:18;;;;;;;44.05;21.10;;;;;;;;;;5061387;28;20474;-78
2021/12/22 10:16:49;;;;;;;30.27;17.02;;;;;;;;;;5051065;28;20037;-78
2021/12/22 10:19:15;;;;;;;29.15;16.17;;;;;;;;;;5066504;28;20739;-78
2021/12/22 10:21:54;;;;;;;46.45;23.98;;;;;;;;;;5049150;28;20543;-78
2021/12/22 10:24:32;;;;;;;35.10;17.80;;;;;;;;;;5057328;28;20024;-78
2021/12/22 10:27:01;;;;;;;31.98;16.50;;;;;;;;;;5072590;28;20052;-78
2021/12/22 10:29:32;;;;;;;30.70;17.20;;;;;;;;;;5068633;28;20063;-78
2021/12/22 10:32:07;;;;;;;34.55;16.90;;;;;;;;;;5065780;28;20064;-78
2021/12/22 10:34:33;;;;;;;29.55;13.95;;;;;;;;;;5067750;28;20029;-78
2021/12/22 10:36:59;;;;;;;32.15;15.50;;;;;;;;;;5055216;28;20044;-79
2021/12/22 10:39:28;;;;;;;32.80;16.52;;;;;;;;;;5066272;28;20028;-79
2021/12/22 10:42:01;;;;;;;29.88;17.83;;;;;;;;;;5068446;28;20123;-79
2021/12/22 10:44:37;;;;;;;28.58;14.88;;;;;;;;;;5069683;28;20043;-78
2021/12/22 10:47:19;;;;;;;33.40;16.70;;;;;;;;;;5071968;28;20033;-77
2021/12/22 10:49:58;;;;;;;31.30;16.17;;;;;;;;;;5066921;28;20021;-79
2021/12/22 10:52:24;;;;;;;27.88;16.20;;;;;;;;;;5070915;28;20074;-78
2021/12/22 10:54:51;;;;;;;29.83;15.25;;;;;;;;;;5072760;28;20039;-78
2021/12/22 10:57:17;;;;;;;33.67;16.33;;;;;;;;;;5072977;28;20375;-79
2021/12/22 10:59:45;;;;;;;31.48;15.43;;;;;;;;;;5065568;28;20039;-78
2021/12/22 11:02:12;;;;;;;39.50;17.45;;;;;;;;;;5072860;28;20106;-78
2021/12/22 11:04:43;;;;;;;34.20;15.43;;;;;;;;;;5071855;28;20107;-78
2021/12/22 11:07:13;;;;;;;39.10;16.13;;;;;;;;;;5072798;28;20032;-78
2021/12/22 11:09:39;;;;;;;39.03;15.40;;;;;;;;;;5072081;28;20029;-78
2021/12/22 11:12:06;;;;;;;27.05;14.85;;;;;;;;;;5063598;28;20522;-78
2021/12/22 11:14:34;;;;;;;31.85;15.13;;;;;;;;;;5071477;28;20031;-78
2021/12/22 11:17:00;;;;;;;28.05;15.60;;;;;;;;;;5072027;28;20037;-78
2021/12/22 11:19:28;;;;;;;32.45;15.95;;;;;;;;;;5059064;28;20899;-78
2021/12/22 11:22:07;;;;;;;32.67;14.07;;;;;;;;;;5070177;28;20047;-78
2021/12/22 11:24:34;;;;;;;27.60;14.80;;;;;;;;;;5071450;28;20032;-78
2021/12/22 11:27:01;;;;;;;35.22;17.75;;;;;;;;;;5063563;28;20041;-78
2021/12/22 11:29:27;;;;;;;32.75;16.40;;;;;;;;;;5071403;28;20025;-78
2021/12/22 11:31:54;;;;;;;33.83;17.95;;;;;;;;;;5066143;28;20032;-78
2021/12/22 11:34:21;;;;;;;31.63;16.02;;;;;;;;;;5083006;28;20024;-78
2021/12/22 11:36:49;;;;;;;50.58;30.50;;;;;;;;;;5074193;28;20044;-78
2021/12/22 11:39:15;;;;;;;55.28;28.10;;;;;;;;;;5072469;28;20077;-78
2021/12/22 11:41:54;;;;;;;34.40;19.45;;;;;;;;;;5062256;28;20458;-78
2021/12/22 11:44:22;;;;;;;37.55;19.60;;;;;;;;;;5065231;28;20017;-79
2021/12/22 11:46:48;;;;;;;31.90;16.33;;;;;;;;;;5071766;28;20115;-78
2021/12/22 11:49:18;;;;;;;33.75;15.65;;;;;;;;;;5060424;28;20029;-78
2021/12/22 11:51:44;;;;;;;32.75;17.88;;;;;;;;;;5059264;28;20037;-79
2021/12/22 11:54:10;;;;;;;30.33;16.40;;;;;;;;;;5063690;28;20024;-78
2021/12/22 11:56:41;;;;;;;32.83;18.98;;;;;;;;;;5064457;28;20471;-78
2021/12/22 11:59:24;;;;;;;31.40;16.20;;;;;;;;;;5068464;28;20123;-78
2021/12/22 12:02:16;;;;;;;32.78;18.30;;;;;;;;;;5069036;28;20043;-78
2021/12/22 12:04:42;;;;;;;25.88;16.17;;;;;;;;;;5058161;28;20518;-79
2021/12/22 12:07:09;;;;;;;34.08;17.27;;;;;;;;;;5070903;28;20044;-78
2021/12/22 12:09:35;;;;;;;31.13;15.50;;;;;;;;;;5067720;28;20032;-78
2021/12/22 12:12:05;;;;;;;27.30;15.75;;;;;;;;;;5075492;28;20056;-78
2021/12/22 12:15:27;;;;;;;33.15;17.60;;;;;;;;;;5066165;28;20036;-79
2021/12/22 12:23:17;;;;;;;36.95;18.15;;;;;;;;;;5066100;28;20509;-78
2021/12/22 12:25:43;;;;;;;33.35;18.27;;;;;;;;;;5069968;28;20078;-78
2021/12/22 12:28:16;;;;;;;34.45;18.48;;;;;;;;;;5061487;28;20418;-79
2021/12/22 12:30:47;;;;;;;31.33;17.63;;;;;;;;;;5067350;28;20701;-78
2021/12/22 12:33:20;;;;;;;31.10;18.20;;;;;;;;;;5062137;28;20079;-78
2021/12/22 12:35:51;;;;;;;34.30;18.38;;;;;;;;;;5070353;28;20278;-78
2021/12/22 12:38:30;;;;;;;29.30;16.23;;;;;;;;;;5060746;28;20135;-78
2021/12/22 12:40:57;;;;;;;40.30;16.83;;;;;;;;;;5065672;28;20028;-78
2021/12/22 12:46:29;;;;;;;35.38;18.38;;;;;;;;;;5067505;28;20749;-78
2021/12/22 12:48:57;;;;;;;34.00;16.00;;;;;;;;;;5066464;28;20028;-78
2021/12/22 12:51:26;;;;;;;32.42;16.30;;;;;;;;;;5056761;28;20036;-78
2021/12/22 12:53:55;;;;;;;34.78;18.05;;;;;;;;;;5070151;28;20029;-78
2021/12/22 12:56:21;;;;;;;38.90;17.58;;;;;;;;;;5052218;28;20048;-79
2021/12/22 12:58:54;;;;;;;31.80;17.88;;;;;;;;;;5065897;28;20068;-79
2021/12/22 13:01:40;;;;;;;34.85;20.20;;;;;;;;;;5068947;28;20028;-78
2021/12/22 13:04:26;;;;;;;34.22;18.23;;;;;;;;;;5059938;28;20527;-78
2021/12/22 13:06:52;;;;;;;35.58;17.00;;;;;;;;;;5058031;28;20029;-78
2021/12/22 13:09:22;;;;;;;32.60;18.00;;;;;;;;;;5066260;28;20025;-79
2021/12/22 13:12:12;;;;;;;34.00;17.92;;;;;;;;;;5072271;28;20471;-78
2021/12/22 13:17:25;;;;;;;31.75;16.92;;;;;;;;;;5063413;28;20048;-79
2021/12/22 13:19:54;;;;;;;37.83;17.13;;;;;;;;;;5060131;28;20037;-78
2021/12/22 13:22:22;;;;;;;35.10;17.30;;;;;;;;;;5063552;28;20127;-78
2021/12/22 13:25:07;;;;;;;31.55;19.17;;;;;;;;;;5052780;28;20029;-78
2021/12/22 13:27:33;;;;;;;30.85;18.35;;;;;;;;;;5059227;28;20125;-79
2021/12/22 13:30:11;;;;;;;34.03;19.38;;;;;;;;;;5063857;28;20075;-78
2021/12/22 13:32:54;;;;;;;36.28;19.88;;;;;;;;;;5064851;28;20074;-78
2021/12/22 13:35:46;;;;;;;35.88;20.40;;;;;;;;;;5064884;28;20474;-78
2021/12/22 13:38:16;;;;;;;36.70;20.30;;;;;;;;;;5051388;28;20706;-78
2021/12/22 13:40:54;;;;;;;37.80;20.77;;;;;;;;;;5059995;28;20044;-79
2021/12/22 13:43:25;;;;;;;34.40;18.80;;;;;;;;;;5063120;28;20047;-78
2021/12/22 13:45:52;;;;;;;36.22;20.48;;;;;;;;;;5066897;28;20045;-78
2021/12/22 13:48:20;;;;;;;34.47;19.00;;;;;;;;;;5080692;28;20028;-79
2021/12/22 13:50:46;;;;;;;36.28;20.38;;;;;;;;;;5065175;28;20078;-77
2021/12/22 13:53:13;;;;;;;33.40;18.60;;;;;;;;;;5057463;28;20047;-78
2021/12/22 13:55:40;;;;;;;32.22;18.75;;;;;;;;;;5053992;28;20075;-78
2021/12/22 13:58:24;;;;;;;33.63;19.80;;;;;;;;;;5054124;28;20873;-78
2021/12/22 14:00:50;;;;;;;33.72;19.83;;;;;;;;;;5061471;28;20052;-78
2021/12/22 14:03:17;;;;;;;31.95;19.42;;;;;;;;;;5059249;28;20556;-79
2021/12/22 14:05:43;;;;;;;35.03;19.15;;;;;;;;;;5062396;28;20478;-78
2021/12/22 14:08:27;;;;;;;35.72;20.20;;;;;;;;;;5064585;28;20086;-78
2021/12/22 14:10:53;;;;;;;35.97;19.15;;;;;;;;;;5055710;28;20036;-79
2021/12/22 14:13:29;;;;;;;33.92;19.17;;;;;;;;;;5057689;28;20356;-78
2021/12/22 14:15:56;;;;;;;41.33;20.00;;;;;;;;;;5048718;28;20037;-78
2021/12/22 14:18:33;;;;;;;36.40;20.42;;;;;;;;;;5057684;28;20028;-78
2021/12/22 14:20:59;;;;;;;35.15;20.10;;;;;;;;;;5071603;28;20375;-78
2021/12/22 14:23:25;;;;;;;36.60;20.90;;;;;;;;;;5072928;28;20165;-78
2021/12/22 14:26:03;;;;;;;37.10;20.95;;;;;;;;;;5070249;28;20037;-78
2021/12/22 14:28:29;;;;;;;36.58;20.55;;;;;;;;;;5054506;28;20124;-79
2021/12/22 14:31:05;;;;;;;39.67;23.40;;;;;;;;;;5072373;28;20060;-79
2021/12/22 14:33:31;;;;;;;52.50;30.48;;;;;;;;;;5071177;28;20024;-79
2021/12/22 14:35:58;;;;;;;40.10;22.67;;;;;;;;;;5068515;28;20083;-79
2021/12/22 14:38:27;;;;;;;44.83;22.92;;;;;;;;;;5074451;28;20150;-78
2021/12/22 14:40:57;;;;;;;39.97;24.70;;;;;;;;;;5059788;28;20040;-79
2021/12/22 14:43:33;;;;;;;40.80;24.77;;;;;;;;;;5072406;28;20463;-79
2021/12/22 14:46:00;;;;;;;43.13;23.80;;;;;;;;;;5060217;28;20054;-78
2021/12/22 14:48:30;;;;;;;42.60;23.40;;;;;;;;;;5057845;28;20028;-79
2021/12/22 14:51:05;;;;;;;39.88;23.23;;;;;;;;;;5061208;28;20061;-78